sensor_id;sensor_type;location;lat;lon;timestamp;pressure;altitude;pressure_sealevel;temperature;humidity
6132;BME280;3097;42.692;23.278;2022-11-15T00:00:50;95619.00;;;4.40;92.59
6132;BME280;3097;42.692;23.278;2022-11-15T00:03:18;95621.72;;;4.38;93.02
6132;BME280;3097;42.692;23.278;2022-11-15T00:05:44;95605.34;;;4.24;93.32
6132;BME280;3097;42.692;23.278;2022-11-15T00:08:10;95615.22;;;4.36;93.27
6132;BME280;3097;42.692;23.278;2022-11-15T00:10:36;95618.09;;;4.33;92.85
6132;BME280;3097;42.692;23.278;2022-11-15T00:13:12;95616.31;;;4.33;92.57
6132;BME280;3097;42.692;23.278;2022-11-15T00:15:40;95617.28;;;4.32;92.60
6132;BME280;3097;42.692;23.278;2022-11-15T00:18:06;95612.69;;;4.27;92.70
6132;BME280;3097;42.692;23.278;2022-11-15T00:20:36;95577.28;;;4.16;92.12
6132;BME280;3097;42.692;23.278;2022-11-15T00:23:05;95609.78;;;4.31;92.36
6132;BME280;3097;42.692;23.278;2022-11-15T00:25:31;95604.22;;;4.27;92.00
6132;BME280;3097;42.692;23.278;2022-11-15T00:27:58;95607.75;;;4.26;92.28
6132;BME280;3097;42.692;23.278;2022-11-15T00:30:24;95588.78;;;4.20;91.59
6132;BME280;3097;42.692;23.278;2022-11-15T00:32:50;95594.50;;;4.22;91.10
6132;BME280;3097;42.692;23.278;2022-11-15T00:35:16;95599.16;;;4.19;91.56
6132;BME280;3097;42.692;23.278;2022-11-15T00:37:41;95570.63;;;3.99;91.65
6132;BME280;3097;42.692;23.278;2022-11-15T00:40:07;95578.94;;;4.01;91.64
6132;BME280;3097;42.692;23.278;2022-11-15T00:42:33;95599.63;;;4.14;91.41
6132;BME280;3097;42.692;23.278;2022-11-15T00:44:58;95594.84;;;4.11;91.54
6132;BME280;3097;42.692;23.278;2022-11-15T00:47:24;95590.56;;;4.12;91.28
6132;BME280;3097;42.692;23.278;2022-11-15T00:49:49;95594.06;;;4.11;91.14
6132;BME280;3097;42.692;23.278;2022-11-15T00:52:14;95595.97;;;4.09;91.97
6132;BME280;3097;42.692;23.278;2022-11-15T00:54:40;95586.88;;;4.06;92.46
6132;BME280;3097;42.692;23.278;2022-11-15T00:57:05;95582.41;;;4.08;92.39
6132;BME280;3097;42.692;23.278;2022-11-15T00:59:31;95570.97;;;3.96;92.05
6132;BME280;3097;42.692;23.278;2022-11-15T01:01:56;95587.50;;;4.16;91.48
6132;BME280;3097;42.692;23.278;2022-11-15T01:04:21;95584.00;;;4.17;91.42
6132;BME280;3097;42.692;23.278;2022-11-15T01:06:47;95582.91;;;4.12;91.53
6132;BME280;3097;42.692;23.278;2022-11-15T01:09:16;95585.91;;;4.15;91.46
6132;BME280;3097;42.692;23.278;2022-11-15T01:11:41;95581.75;;;4.14;91.75
6132;BME280;3097;42.692;23.278;2022-11-15T01:14:07;95583.22;;;4.09;91.88
6132;BME280;3097;42.692;23.278;2022-11-15T01:16:32;95586.56;;;4.09;91.98
6132;BME280;3097;42.692;23.278;2022-11-15T01:18:58;95586.88;;;4.06;92.26
6132;BME280;3097;42.692;23.278;2022-11-15T01:21:24;95582.91;;;4.04;92.01
6132;BME280;3097;42.692;23.278;2022-11-15T01:23:53;95584.03;;;4.01;91.63
6132;BME280;3097;42.692;23.278;2022-11-15T01:26:19;95582.13;;;4.03;91.56
6132;BME280;3097;42.692;23.278;2022-11-15T01:28:44;95577.03;;;3.95;91.68
6132;BME280;3097;42.692;23.278;2022-11-15T01:31:15;95584.38;;;3.98;91.56
6132;BME280;3097;42.692;23.278;2022-11-15T01:33:41;95578.78;;;3.95;91.56
6132;BME280;3097;42.692;23.278;2022-11-15T01:36:11;95581.34;;;3.95;91.31
6132;BME280;3097;42.692;23.278;2022-11-15T01:38:37;95571.63;;;3.90;91.21
6132;BME280;3097;42.692;23.278;2022-11-15T01:41:03;95571.63;;;3.90;91.62
6132;BME280;3097;42.692;23.278;2022-11-15T01:43:32;95565.25;;;3.86;91.77
6132;BME280;3097;42.692;23.278;2022-11-15T01:46:15;95572.75;;;3.87;91.80
6132;BME280;3097;42.692;23.278;2022-11-15T01:48:44;95571.16;;;3.86;91.85
6132;BME280;3097;42.692;23.278;2022-11-15T01:51:13;95558.91;;;3.74;92.11
6132;BME280;3097;42.692;23.278;2022-11-15T01:53:44;95565.41;;;3.84;92.15
6132;BME280;3097;42.692;23.278;2022-11-15T01:56:18;95569.09;;;3.82;92.19
6132;BME280;3097;42.692;23.278;2022-11-15T01:58:45;95573.41;;;3.81;92.22
6132;BME280;3097;42.692;23.278;2022-11-15T02:01:12;95567.50;;;3.81;91.72
6132;BME280;3097;42.692;23.278;2022-11-15T02:03:51;95558.41;;;3.78;91.76
6132;BME280;3097;42.692;23.278;2022-11-15T02:06:19;95549.97;;;3.70;91.64
6132;BME280;3097;42.692;23.278;2022-11-15T02:08:46;95570.69;;;3.83;91.51
6132;BME280;3097;42.692;23.278;2022-11-15T02:11:12;95568.63;;;3.78;91.34
6132;BME280;3097;42.692;23.278;2022-11-15T02:13:38;95567.19;;;3.76;91.36
6132;BME280;3097;42.692;23.278;2022-11-15T02:21:46;95569.28;;;3.72;91.50
6132;BME280;3097;42.692;23.278;2022-11-15T02:24:37;95562.72;;;3.70;91.85
6132;BME280;3097;42.692;23.278;2022-11-15T02:32:55;95560.84;;;3.64;91.99
6132;BME280;3097;42.692;23.278;2022-11-15T02:35:48;95558.91;;;3.66;91.88
6132;BME280;3097;42.692;23.278;2022-11-15T02:43:28;95553.19;;;3.64;91.84
6132;BME280;3097;42.692;23.278;2022-11-15T02:46:31;95550.97;;;3.61;91.74
6132;BME280;3097;42.692;23.278;2022-11-15T02:49:17;95513.41;;;3.30;91.58
6132;BME280;3097;42.692;23.278;2022-11-15T02:51:44;95558.13;;;3.57;91.76
6132;BME280;3097;42.692;23.278;2022-11-15T02:54:19;95554.78;;;3.57;91.61
6132;BME280;3097;42.692;23.278;2022-11-15T02:56:47;95559.88;;;3.57;91.59
6132;BME280;3097;42.692;23.278;2022-11-15T03:05:18;95570.38;;;3.54;92.27
6132;BME280;3097;42.692;23.278;2022-11-15T03:11:03;95560.69;;;3.65;93.39
6132;BME280;3097;42.692;23.278;2022-11-15T03:16:28;95556.03;;;3.77;93.69
6132;BME280;3097;42.692;23.278;2022-11-15T03:19:04;95548.34;;;3.85;93.62
6132;BME280;3097;42.692;23.278;2022-11-15T03:21:32;95552.03;;;3.91;93.81
6132;BME280;3097;42.692;23.278;2022-11-15T03:24:03;95555.84;;;3.95;94.08
6132;BME280;3097;42.692;23.278;2022-11-15T03:26:31;95547.38;;;4.02;93.70
6132;BME280;3097;42.692;23.278;2022-11-15T03:29:02;95551.66;;;4.10;93.27
6132;BME280;3097;42.692;23.278;2022-11-15T03:31:33;95544.41;;;4.21;93.11
6132;BME280;3097;42.692;23.278;2022-11-15T03:34:19;95539.94;;;4.23;93.01
6132;BME280;3097;42.692;23.278;2022-11-15T03:36:47;95538.31;;;4.31;93.22
6132;BME280;3097;42.692;23.278;2022-11-15T03:39:14;95536.69;;;4.38;93.32
6132;BME280;3097;42.692;23.278;2022-11-15T03:47:03;95530.44;;;4.48;94.24
6132;BME280;3097;42.692;23.278;2022-11-15T03:49:34;95520.06;;;4.50;93.67
6132;BME280;3097;42.692;23.278;2022-11-15T03:52:02;95532.28;;;4.62;93.66
6132;BME280;3097;42.692;23.278;2022-11-15T03:54:28;95530.38;;;4.64;93.95
6132;BME280;3097;42.692;23.278;2022-11-15T03:56:54;95522.19;;;4.69;94.19
6132;BME280;3097;42.692;23.278;2022-11-15T03:59:19;95529.47;;;4.80;93.81
6132;BME280;3097;42.692;23.278;2022-11-15T04:01:45;95523.56;;;4.80;93.96
6132;BME280;3097;42.692;23.278;2022-11-15T04:04:10;95519.88;;;4.82;93.87
6132;BME280;3097;42.692;23.278;2022-11-15T04:06:36;95523.97;;;4.91;94.13
6132;BME280;3097;42.692;23.278;2022-11-15T04:09:01;95516.75;;;4.95;94.40
6132;BME280;3097;42.692;23.278;2022-11-15T04:11:27;95516.25;;;4.99;94.72
6132;BME280;3097;42.692;23.278;2022-11-15T04:13:52;95515.72;;;5.04;94.86
6132;BME280;3097;42.692;23.278;2022-11-15T04:16:17;95511.72;;;5.10;94.90
6132;BME280;3097;42.692;23.278;2022-11-15T04:18:43;95518.34;;;5.19;94.70
6132;BME280;3097;42.692;23.278;2022-11-15T04:21:09;95518.34;;;5.19;95.29
6132;BME280;3097;42.692;23.278;2022-11-15T04:23:53;95505.75;;;5.17;95.45
6132;BME280;3097;42.692;23.278;2022-11-15T04:26:30;95511.75;;;5.24;95.97
6132;BME280;3097;42.692;23.278;2022-11-15T04:28:56;95508.41;;;5.24;96.26
6132;BME280;3097;42.692;23.278;2022-11-15T04:31:40;95501.97;;;5.28;96.56
6132;BME280;3097;42.692;23.278;2022-11-15T04:34:06;95507.06;;;5.28;96.68
6132;BME280;3097;42.692;23.278;2022-11-15T04:36:31;95491.13;;;5.26;96.74
6132;BME280;3097;42.692;23.278;2022-11-15T04:39:15;95473.13;;;5.19;96.73
6132;BME280;3097;42.692;23.278;2022-11-15T04:41:40;95511.63;;;5.40;97.17
6132;BME280;3097;42.692;23.278;2022-11-15T04:44:06;95508.59;;;5.37;97.00
6132;BME280;3097;42.692;23.278;2022-11-15T04:46:31;95511.78;;;5.39;97.16
6132;BME280;3097;42.692;23.278;2022-11-15T04:48:57;95510.13;;;5.46;96.95
6132;BME280;3097;42.692;23.278;2022-11-15T04:51:22;95512.50;;;5.48;96.98
6132;BME280;3097;42.692;23.278;2022-11-15T04:53:48;95509.00;;;5.49;96.71
6132;BME280;3097;42.692;23.278;2022-11-15T04:56:14;95474.72;;;5.20;97.29
6132;BME280;3097;42.692;23.278;2022-11-15T04:58:39;95479.13;;;5.26;97.36
6132;BME280;3097;42.692;23.278;2022-11-15T05:01:12;95514.53;;;5.52;97.25
6132;BME280;3097;42.692;23.278;2022-11-15T05:03:40;95523.81;;;5.53;96.95
6132;BME280;3097;42.692;23.278;2022-11-15T05:06:24;95510.03;;;5.54;96.91
6132;BME280;3097;42.692;23.278;2022-11-15T05:08:49;95524.69;;;5.60;96.96
6132;BME280;3097;42.692;23.278;2022-11-15T05:11:15;95524.84;;;5.59;97.07
6132;BME280;3097;42.692;23.278;2022-11-15T05:13:40;95525.66;;;5.59;97.36
6132;BME280;3097;42.692;23.278;2022-11-15T05:16:06;95511.00;;;5.53;97.64
6132;BME280;3097;42.692;23.278;2022-11-15T05:18:34;95509.88;;;5.56;98.05
6132;BME280;3097;42.692;23.278;2022-11-15T05:21:04;95511.28;;;5.58;98.16
6132;BME280;3097;42.692;23.278;2022-11-15T05:23:29;95502.38;;;5.54;98.30
6132;BME280;3097;42.692;23.278;2022-11-15T05:25:59;95512.25;;;5.57;98.55
6132;BME280;3097;42.692;23.278;2022-11-15T05:28:24;95503.97;;;5.55;98.79
6132;BME280;3097;42.692;23.278;2022-11-15T05:30:50;95495.94;;;5.58;98.48
6132;BME280;3097;42.692;23.278;2022-11-15T05:33:15;95499.75;;;5.62;98.31
6132;BME280;3097;42.692;23.278;2022-11-15T05:35:45;95504.69;;;5.64;98.20
6132;BME280;3097;42.692;23.278;2022-11-15T05:38:11;95503.25;;;5.61;98.35
6132;BME280;3097;42.692;23.278;2022-11-15T05:40:37;95497.91;;;5.56;98.89
6132;BME280;3097;42.692;23.278;2022-11-15T05:43:03;95505.66;;;5.63;98.93
6132;BME280;3097;42.692;23.278;2022-11-15T05:45:31;95499.44;;;5.57;99.08
6132;BME280;3097;42.692;23.278;2022-11-15T05:48:00;95511.91;;;5.60;99.35
6132;BME280;3097;42.692;23.278;2022-11-15T05:50:29;95505.28;;;5.66;99.33
6132;BME280;3097;42.692;23.278;2022-11-15T05:52:55;95513.59;;;5.68;99.37
6132;BME280;3097;42.692;23.278;2022-11-15T05:55:21;95512.09;;;5.73;98.99
6132;BME280;3097;42.692;23.278;2022-11-15T05:57:47;95513.25;;;5.71;99.06
6132;BME280;3097;42.692;23.278;2022-11-15T06:00:12;95515.44;;;5.74;99.22
6132;BME280;3097;42.692;23.278;2022-11-15T06:02:38;95512.19;;;5.80;98.82
6132;BME280;3097;42.692;23.278;2022-11-15T06:05:03;95496.13;;;5.71;98.97
6132;BME280;3097;42.692;23.278;2022-11-15T06:07:30;95523.78;;;5.91;98.24
6132;BME280;3097;42.692;23.278;2022-11-15T06:09:55;95490.03;;;5.72;98.30
6132;BME280;3097;42.692;23.278;2022-11-15T06:12:21;95518.31;;;5.94;97.80
6132;BME280;3097;42.692;23.278;2022-11-15T06:14:46;95531.13;;;5.94;97.63
6132;BME280;3097;42.692;23.278;2022-11-15T06:17:12;95514.56;;;5.81;97.70
6132;BME280;3097;42.692;23.278;2022-11-15T06:19:37;95524.47;;;5.84;97.51
6132;BME280;3097;42.692;23.278;2022-11-15T06:22:03;95523.38;;;5.79;98.18
6132;BME280;3097;42.692;23.278;2022-11-15T06:24:28;95519.31;;;5.55;98.67
6132;BME280;3097;42.692;23.278;2022-11-15T06:26:53;95520.47;;;5.67;99.41
6132;BME280;3097;42.692;23.278;2022-11-15T06:29:19;95519.41;;;5.76;99.16
6132;BME280;3097;42.692;23.278;2022-11-15T06:31:44;95511.03;;;5.82;98.72
6132;BME280;3097;42.692;23.278;2022-11-15T06:34:10;95504.34;;;5.81;98.52
6132;BME280;3097;42.692;23.278;2022-11-15T06:36:35;95511.03;;;5.82;98.82
6132;BME280;3097;42.692;23.278;2022-11-15T06:39:04;95514.56;;;5.81;99.24
6132;BME280;3097;42.692;23.278;2022-11-15T06:41:30;95497.44;;;5.82;99.68
6132;BME280;3097;42.692;23.278;2022-11-15T06:43:56;95512.22;;;5.95;99.53
6132;BME280;3097;42.692;23.278;2022-11-15T06:46:22;95517.25;;;6.03;99.13
6132;BME280;3097;42.692;23.278;2022-11-15T06:48:50;95506.31;;;6.09;99.31
6132;BME280;3097;42.692;23.278;2022-11-15T06:51:17;95510.81;;;6.07;99.35
6132;BME280;3097;42.692;23.278;2022-11-15T06:53:42;95505.59;;;6.15;98.84
6132;BME280;3097;42.692;23.278;2022-11-15T06:56:08;95510.34;;;6.18;98.89
6132;BME280;3097;42.692;23.278;2022-11-15T06:58:34;95511.16;;;6.18;98.98
6132;BME280;3097;42.692;23.278;2022-11-15T07:01:06;95505.75;;;6.28;98.56
6132;BME280;3097;42.692;23.278;2022-11-15T07:03:34;95504.06;;;6.35;98.48
6132;BME280;3097;42.692;23.278;2022-11-15T07:06:00;95506.81;;;6.34;98.43
6132;BME280;3097;42.692;23.278;2022-11-15T07:08:27;95504.06;;;6.35;98.26
6132;BME280;3097;42.692;23.278;2022-11-15T07:10:54;95501.25;;;6.30;98.13
6132;BME280;3097;42.692;23.278;2022-11-15T07:13:19;95503.81;;;6.30;98.38
6132;BME280;3097;42.692;23.278;2022-11-15T07:15:44;95505.50;;;6.38;98.03
6132;BME280;3097;42.692;23.278;2022-11-15T07:18:10;95504.31;;;6.40;98.01
6132;BME280;3097;42.692;23.278;2022-11-15T07:20:35;95497.19;;;6.36;98.13
6132;BME280;3097;42.692;23.278;2022-11-15T07:23:02;95498.94;;;6.35;97.81
6132;BME280;3097;42.692;23.278;2022-11-15T07:25:28;95506.81;;;6.34;97.52
6132;BME280;3097;42.692;23.278;2022-11-15T07:27:58;95507.50;;;6.42;97.32
6132;BME280;3097;42.692;23.278;2022-11-15T07:30:25;95505.72;;;6.43;97.31
6132;BME280;3097;42.692;23.278;2022-11-15T07:32:57;95511.53;;;6.51;97.38
6132;BME280;3097;42.692;23.278;2022-11-15T07:35:24;95510.81;;;6.57;97.07
6132;BME280;3097;42.692;23.278;2022-11-15T07:38:01;95498.97;;;6.56;97.24
6132;BME280;3097;42.692;23.278;2022-11-15T07:40:29;95507.13;;;6.60;97.84
6132;BME280;3097;42.692;23.278;2022-11-15T07:43:06;95507.00;;;6.68;97.24
6132;BME280;3097;42.692;23.278;2022-11-15T07:45:32;95504.06;;;6.71;97.09
6132;BME280;3097;42.692;23.278;2022-11-15T07:48:00;95503.09;;;6.72;97.32
6132;BME280;3097;42.692;23.278;2022-11-15T07:50:26;95508.66;;;6.76;97.42
6132;BME280;3097;42.692;23.278;2022-11-15T07:52:58;95472.41;;;6.57;97.32
6132;BME280;3097;42.692;23.278;2022-11-15T07:55:25;95483.47;;;6.79;96.98
6132;BME280;3097;42.692;23.278;2022-11-15T07:57:52;95479.38;;;6.85;96.47
6132;BME280;3097;42.692;23.278;2022-11-15T08:00:18;95495.84;;;6.97;95.86
6132;BME280;3097;42.692;23.278;2022-11-15T08:02:44;95503.38;;;6.98;95.60
6132;BME280;3097;42.692;23.278;2022-11-15T08:05:09;95501.84;;;7.04;95.07
6132;BME280;3097;42.692;23.278;2022-11-15T08:07:35;95508.41;;;6.92;94.16
6132;BME280;3097;42.692;23.278;2022-11-15T08:10:00;95496.59;;;6.91;95.17
6132;BME280;3097;42.692;23.278;2022-11-15T08:12:29;95491.47;;;6.91;95.32
6132;BME280;3097;42.692;23.278;2022-11-15T08:14:55;95491.47;;;6.91;95.74
6132;BME280;3097;42.692;23.278;2022-11-15T08:17:24;95497.44;;;6.98;95.56
6132;BME280;3097;42.692;23.278;2022-11-15T08:19:50;95496.31;;;6.86;94.79
6132;BME280;3097;42.692;23.278;2022-11-15T08:22:17;95477.69;;;6.56;95.78
6132;BME280;3097;42.692;23.278;2022-11-15T08:24:43;95484.91;;;6.67;96.82
6132;BME280;3097;42.692;23.278;2022-11-15T08:27:09;95493.28;;;6.76;97.46
6132;BME280;3097;42.692;23.278;2022-11-15T08:29:41;95488.63;;;6.86;97.02
6132;BME280;3097;42.692;23.278;2022-11-15T08:32:07;95484.75;;;6.90;97.03
6132;BME280;3097;42.692;23.278;2022-11-15T08:34:33;95477.13;;;6.96;96.54
6132;BME280;3097;42.692;23.278;2022-11-15T08:36:58;95484.50;;;7.06;96.42
6132;BME280;3097;42.692;23.278;2022-11-15T08:39:23;95470.69;;;7.07;96.11
6132;BME280;3097;42.692;23.278;2022-11-15T08:41:49;95468.97;;;7.14;96.25
6132;BME280;3097;42.692;23.278;2022-11-15T08:44:14;95470.81;;;7.20;96.22
6132;BME280;3097;42.692;23.278;2022-11-15T08:46:40;95470.81;;;7.20;95.71
6132;BME280;3097;42.692;23.278;2022-11-15T08:49:05;95472.06;;;7.31;95.55
6132;BME280;3097;42.692;23.278;2022-11-15T08:51:30;95471.75;;;7.41;95.26
6132;BME280;3097;42.692;23.278;2022-11-15T08:53:56;95469.81;;;7.43;95.07
6132;BME280;3097;42.692;23.278;2022-11-15T08:56:21;95458.44;;;7.52;95.03
6132;BME280;3097;42.692;23.278;2022-11-15T08:58:47;95464.31;;;7.52;95.24
6132;BME280;3097;42.692;23.278;2022-11-15T09:01:18;95463.16;;;7.55;94.03
6132;BME280;3097;42.692;23.278;2022-11-15T09:03:44;95453.47;;;7.50;94.79
6132;BME280;3097;42.692;23.278;2022-11-15T09:06:10;95450.13;;;7.50;94.57
6132;BME280;3097;42.692;23.278;2022-11-15T09:08:35;95440.41;;;7.45;93.92
6132;BME280;3097;42.692;23.278;2022-11-15T09:11:06;95446.78;;;7.56;93.86
6132;BME280;3097;42.692;23.278;2022-11-15T09:13:34;95420.88;;;7.44;94.57
6132;BME280;3097;42.692;23.278;2022-11-15T09:16:00;95432.03;;;7.58;94.92
6132;BME280;3097;42.692;23.278;2022-11-15T09:18:26;95405.91;;;7.48;94.49
6132;BME280;3097;42.692;23.278;2022-11-15T09:20:56;95418.78;;;7.61;92.36
6132;BME280;3097;42.692;23.278;2022-11-15T09:23:22;95443.09;;;7.37;93.15
6132;BME280;3097;42.692;23.278;2022-11-15T09:25:48;95435.22;;;7.38;94.67
6132;BME280;3097;42.692;23.278;2022-11-15T09:28:13;95423.38;;;7.37;94.27
6132;BME280;3097;42.692;23.278;2022-11-15T09:30:38;95419.34;;;7.50;94.40
6132;BME280;3097;42.692;23.278;2022-11-15T09:33:11;95420.78;;;7.59;94.92
6132;BME280;3097;42.692;23.278;2022-11-15T09:35:37;95403.84;;;7.64;94.93
6132;BME280;3097;42.692;23.278;2022-11-15T09:38:03;95411.78;;;7.83;94.14
6132;BME280;3097;42.692;23.278;2022-11-15T09:40:31;95416.44;;;8.00;92.26
6132;BME280;3097;42.692;23.278;2022-11-15T09:45:57;95393.31;;;8.00;91.09
6132;BME280;3097;42.692;23.278;2022-11-15T09:48:31;95407.19;;;8.12;90.18
6132;BME280;3097;42.692;23.278;2022-11-15T09:50:59;95406.59;;;8.10;90.25
6132;BME280;3097;42.692;23.278;2022-11-15T09:56:01;95398.91;;;8.17;89.51
6132;BME280;3097;42.692;23.278;2022-11-15T10:01:00;95388.16;;;8.48;90.41
6132;BME280;3097;42.692;23.278;2022-11-15T10:03:31;95382.03;;;8.62;89.10
6132;BME280;3097;42.692;23.278;2022-11-15T10:06:05;95372.38;;;8.77;88.46
6132;BME280;3097;42.692;23.278;2022-11-15T10:11:03;95370.41;;;8.92;85.47
6132;BME280;3097;42.692;23.278;2022-11-15T10:13:33;95377.50;;;8.90;86.10
6132;BME280;3097;42.692;23.278;2022-11-15T10:27:39;95350.41;;;9.14;85.17
6132;BME280;3097;42.692;23.278;2022-11-15T10:30:17;95349.78;;;9.19;85.29
6132;BME280;3097;42.692;23.278;2022-11-15T10:32:45;95339.69;;;9.24;85.07
6132;BME280;3097;42.692;23.278;2022-11-15T10:35:20;95335.91;;;9.26;84.40
6132;BME280;3097;42.692;23.278;2022-11-15T10:37:46;95319.34;;;9.16;84.45
6132;BME280;3097;42.692;23.278;2022-11-15T10:40:22;95319.34;;;9.03;83.74
6132;BME280;3097;42.692;23.278;2022-11-15T10:43:06;95325.50;;;9.02;84.05
6132;BME280;3097;42.692;23.278;2022-11-15T10:45:38;95321.34;;;8.81;85.48
6132;BME280;3097;42.692;23.278;2022-11-15T10:50:45;95300.22;;;8.79;86.05
6132;BME280;3097;42.692;23.278;2022-11-15T10:53:21;95302.34;;;8.95;85.36
6132;BME280;3097;42.692;23.278;2022-11-15T10:55:49;95310.88;;;8.69;85.55
6132;BME280;3097;42.692;23.278;2022-11-15T10:58:39;95304.75;;;8.57;86.32
6132;BME280;3097;42.692;23.278;2022-11-15T11:01:10;95295.25;;;8.51;87.22
6132;BME280;3097;42.692;23.278;2022-11-15T11:03:38;95287.16;;;8.41;87.59
6132;BME280;3097;42.692;23.278;2022-11-15T11:08:35;95279.06;;;8.37;88.09
6132;BME280;3097;42.692;23.278;2022-11-15T11:11:02;95285.38;;;8.48;88.08
6132;BME280;3097;42.692;23.278;2022-11-15T11:13:31;95259.28;;;8.38;88.22
6132;BME280;3097;42.692;23.278;2022-11-15T11:21:22;95267.59;;;8.79;87.41
6132;BME280;3097;42.692;23.278;2022-11-15T11:23:59;95245.63;;;8.83;86.64
6132;BME280;3097;42.692;23.278;2022-11-15T11:26:42;95257.28;;;8.92;86.29
6132;BME280;3097;42.692;23.278;2022-11-15T11:30:19;95222.47;;;8.83;86.11
6132;BME280;3097;42.692;23.278;2022-11-15T11:35:45;95239.00;;;9.14;85.37
6132;BME280;3097;42.692;23.278;2022-11-15T11:41:16;95221.22;;;9.12;85.82
6132;BME280;3097;42.692;23.278;2022-11-15T11:43:59;95224.19;;;9.09;85.56
6132;BME280;3097;42.692;23.278;2022-11-15T11:46:32;95220.41;;;9.12;85.76
6132;BME280;3097;42.692;23.278;2022-11-15T11:49:08;95209.13;;;9.19;85.45
6132;BME280;3097;42.692;23.278;2022-11-15T11:51:42;95207.72;;;9.23;84.90
6132;BME280;3097;42.692;23.278;2022-11-15T11:57:21;95200.97;;;9.29;84.79
6132;BME280;3097;42.692;23.278;2022-11-15T12:00:01;95193.47;;;9.21;85.08
6132;BME280;3097;42.692;23.278;2022-11-15T12:02:38;95189.75;;;9.17;84.96
6132;BME280;3097;42.692;23.278;2022-11-15T12:05:13;95187.75;;;9.19;84.92
6132;BME280;3097;42.692;23.278;2022-11-15T12:07:43;95180.66;;;9.14;84.82
6132;BME280;3097;42.692;23.278;2022-11-15T12:12:49;95165.59;;;9.24;84.87
6132;BME280;3097;42.692;23.278;2022-11-15T12:15:24;95154.75;;;9.16;85.01
6132;BME280;3097;42.692;23.278;2022-11-15T12:17:51;95165.34;;;9.26;84.68
6132;BME280;3097;42.692;23.278;2022-11-15T12:20:24;95167.78;;;9.14;85.09
6132;BME280;3097;42.692;23.278;2022-11-15T12:23:13;95159.47;;;9.12;85.80
6132;BME280;3097;42.692;23.278;2022-11-15T12:26:00;95150.59;;;9.15;85.28
6132;BME280;3097;42.692;23.278;2022-11-15T12:33:34;95141.66;;;9.17;85.74
6132;BME280;3097;42.692;23.278;2022-11-15T12:36:03;95109.66;;;9.07;85.01
6132;BME280;3097;42.692;23.278;2022-11-15T12:38:53;95137.06;;;9.26;85.31
6132;BME280;3097;42.692;23.278;2022-11-15T12:41:20;95132.06;;;9.38;84.72
6132;BME280;3097;42.692;23.278;2022-11-15T12:43:47;95134.44;;;9.32;85.03
6132;BME280;3097;42.692;23.278;2022-11-15T12:46:19;95134.44;;;9.39;85.17
6132;BME280;3097;42.692;23.278;2022-11-15T12:48:53;95119.94;;;9.45;84.89
6132;BME280;3097;42.692;23.278;2022-11-15T12:51:21;95125.44;;;9.48;84.56
6132;BME280;3097;42.692;23.278;2022-11-15T12:53:47;95127.38;;;9.59;83.89
6132;BME280;3097;42.692;23.278;2022-11-15T12:58:59;95126.72;;;9.64;83.80
6132;BME280;3097;42.692;23.278;2022-11-15T13:07:03;95113.19;;;9.75;83.42
6132;BME280;3097;42.692;23.278;2022-11-15T13:14:52;95100.75;;;9.72;83.74
6132;BME280;3097;42.692;23.278;2022-11-15T13:19:45;95100.06;;;9.83;83.62
6132;BME280;3097;42.692;23.278;2022-11-15T13:22:11;95087.81;;;9.79;82.99
6132;BME280;3097;42.692;23.278;2022-11-15T13:28:00;95090.91;;;9.87;83.00
6132;BME280;3097;42.692;23.278;2022-11-15T13:30:30;95086.56;;;9.88;83.39
6132;BME280;3097;42.692;23.278;2022-11-15T13:32:58;95085.47;;;9.77;83.75
6132;BME280;3097;42.692;23.278;2022-11-15T13:35:28;95088.59;;;9.79;83.96
6132;BME280;3097;42.692;23.278;2022-11-15T13:37:56;95096.13;;;9.81;83.67
6132;BME280;3097;42.692;23.278;2022-11-15T13:40:24;95088.41;;;9.81;83.88
6132;BME280;3097;42.692;23.278;2022-11-15T13:42:52;95087.75;;;9.85;83.60
6132;BME280;3097;42.692;23.278;2022-11-15T13:45:19;95085.03;;;9.80;83.92
6132;BME280;3097;42.692;23.278;2022-11-15T13:47:51;95086.56;;;9.88;83.80
6132;BME280;3097;42.692;23.278;2022-11-15T13:50:16;95086.94;;;9.91;83.60
6132;BME280;3097;42.692;23.278;2022-11-15T13:52:43;95073.09;;;9.86;83.63
6132;BME280;3097;42.692;23.278;2022-11-15T13:55:14;95074.63;;;9.93;83.61
6132;BME280;3097;42.692;23.278;2022-11-15T13:57:46;95080.56;;;9.94;83.68
6132;BME280;3097;42.692;23.278;2022-11-15T14:02:54;95085.69;;;9.94;83.44
6132;BME280;3097;42.692;23.278;2022-11-15T14:05:22;95075.25;;;9.89;83.30
6132;BME280;3097;42.692;23.278;2022-11-15T14:08:57;95084.72;;;9.95;83.50
6132;BME280;3097;42.692;23.278;2022-11-15T14:10:44;95072.09;;;9.87;83.48
6132;BME280;3097;42.692;23.278;2022-11-15T14:13:27;95082.56;;;9.92;83.63
6132;BME280;3097;42.692;23.278;2022-11-15T14:15:53;95070.38;;;9.81;83.94
6132;BME280;3097;42.692;23.278;2022-11-15T14:18:52;95077.09;;;9.82;84.30
6132;BME280;3097;42.692;23.278;2022-11-15T14:21:19;95070.84;;;9.71;84.65
6132;BME280;3097;42.692;23.278;2022-11-15T14:23:45;95069.69;;;9.67;84.86
6132;BME280;3097;42.692;23.278;2022-11-15T14:26:29;95070.09;;;9.64;85.10
6132;BME280;3097;42.692;23.278;2022-11-15T14:28:55;95048.69;;;9.45;85.02
6132;BME280;3097;42.692;23.278;2022-11-15T14:31:21;95078.09;;;9.56;85.41
6132;BME280;3097;42.692;23.278;2022-11-15T14:33:47;95081.09;;;9.53;85.31
6132;BME280;3097;42.692;23.278;2022-11-15T14:36:15;95068.84;;;9.48;85.49
6132;BME280;3097;42.692;23.278;2022-11-15T14:38:41;95078.34;;;9.48;85.54
6132;BME280;3097;42.692;23.278;2022-11-15T14:41:22;95075.41;;;9.44;85.57
6132;BME280;3097;42.692;23.278;2022-11-15T14:43:49;95078.81;;;9.38;85.97
6132;BME280;3097;42.692;23.278;2022-11-15T14:46:14;95079.44;;;9.33;86.02
6132;BME280;3097;42.692;23.278;2022-11-15T14:48:40;95083.44;;;9.29;86.38
6132;BME280;3097;42.692;23.278;2022-11-15T14:51:13;95078.88;;;9.25;86.53
6132;BME280;3097;42.692;23.278;2022-11-15T14:53:39;95070.06;;;9.14;86.58
6132;BME280;3097;42.692;23.278;2022-11-15T14:56:05;95071.06;;;9.13;86.79
6132;BME280;3097;42.692;23.278;2022-11-15T14:58:30;95072.06;;;9.12;86.93
6132;BME280;3097;42.692;23.278;2022-11-15T15:00:56;95079.59;;;9.07;86.96
6132;BME280;3097;42.692;23.278;2022-11-15T15:03:21;95081.03;;;8.97;87.84
6132;BME280;3097;42.692;23.278;2022-11-15T15:05:47;95072.16;;;8.92;88.01
6132;BME280;3097;42.692;23.278;2022-11-15T15:08:12;95068.22;;;8.90;88.07
6132;BME280;3097;42.692;23.278;2022-11-15T15:10:43;95066.09;;;8.80;88.21
6132;BME280;3097;42.692;23.278;2022-11-15T15:13:18;95067.91;;;8.73;88.79
6132;BME280;3097;42.692;23.278;2022-11-15T15:15:44;95054.69;;;8.70;88.62
6132;BME280;3097;42.692;23.278;2022-11-15T15:18:10;95038.78;;;8.48;88.88